sensor_id;sensor_type;location;lat;lon;timestamp;P1;durP1;ratioP1;P2;durP2;ratioP2
18752;SDS011;9505;50.882;5.350;2023-12-29T00:01:48;20.45;;;2.50;;
18752;SDS011;9505;50.882;5.350;2023-12-29T00:04:13;16.13;;;2.38;;
18752;SDS011;9505;50.882;5.350;2023-12-29T00:06:39;16.33;;;2.05;;
18752;SDS011;9505;50.882;5.350;2023-12-29T00:09:05;27.55;;;3.30;;
18752;SDS011;9505;50.882;5.350;2023-12-29T00:11:32;15.20;;;2.38;;
18752;SDS011;9505;50.882;5.350;2023-12-29T00:13:58;16.98;;;2.58;;
18752;SDS011;9505;50.882;5.350;2023-12-29T00:16:24;24.88;;;2.63;;
18752;SDS011;9505;50.882;5.350;2023-12-29T00:18:49;20.38;;;2.45;;
18752;SDS011;9505;50.882;5.350;2023-12-29T00:21:15;14.90;;;2.08;;
18752;SDS011;9505;50.882;5.350;2023-12-29T00:23:41;13.77;;;2.20;;
18752;SDS011;9505;50.882;5.350;2023-12-29T00:26:07;12.38;;;1.70;;
18752;SDS011;9505;50.882;5.350;2023-12-29T00:28:33;16.30;;;2.40;;
18752;SDS011;9505;50.882;5.350;2023-12-29T00:31:00;25.85;;;2.88;;
18752;SDS011;9505;50.882;5.350;2023-12-29T00:33:26;15.23;;;2.33;;
18752;SDS011;9505;50.882;5.350;2023-12-29T00:35:52;17.45;;;3.22;;
18752;SDS011;9505;50.882;5.350;2023-12-29T00:38:17;25.10;;;2.83;;
18752;SDS011;9505;50.882;5.350;2023-12-29T00:40:43;11.38;;;1.83;;
18752;SDS011;9505;50.882;5.350;2023-12-29T00:43:08;21.35;;;2.20;;
18752;SDS011;9505;50.882;5.350;2023-12-29T00:45:34;15.13;;;1.70;;
18752;SDS011;9505;50.882;5.350;2023-12-29T00:48:01;19.42;;;2.92;;
18752;SDS011;9505;50.882;5.350;2023-12-29T00:50:27;20.38;;;2.78;;
18752;SDS011;9505;50.882;5.350;2023-12-29T00:52:53;35.00;;;5.47;;
18752;SDS011;9505;50.882;5.350;2023-12-29T00:55:19;24.17;;;2.83;;
18752;SDS011;9505;50.882;5.350;2023-12-29T00:57:45;20.73;;;2.83;;
18752;SDS011;9505;50.882;5.350;2023-12-29T01:00:11;20.15;;;2.50;;
18752;SDS011;9505;50.882;5.350;2023-12-29T01:02:40;18.10;;;2.60;;
18752;SDS011;9505;50.882;5.350;2023-12-29T01:05:06;11.07;;;2.10;;
18752;SDS011;9505;50.882;5.350;2023-12-29T01:07:32;33.45;;;3.72;;
18752;SDS011;9505;50.882;5.350;2023-12-29T01:09:58;19.73;;;2.28;;
18752;SDS011;9505;50.882;5.350;2023-12-29T01:12:24;31.33;;;4.32;;
18752;SDS011;9505;50.882;5.350;2023-12-29T01:14:50;15.77;;;3.33;;
18752;SDS011;9505;50.882;5.350;2023-12-29T01:17:16;18.67;;;2.50;;
18752;SDS011;9505;50.882;5.350;2023-12-29T01:19:41;23.20;;;2.40;;
18752;SDS011;9505;50.882;5.350;2023-12-29T01:22:07;13.60;;;2.33;;
18752;SDS011;9505;50.882;5.350;2023-12-29T01:24:33;27.58;;;4.20;;
18752;SDS011;9505;50.882;5.350;2023-12-29T01:26:58;30.52;;;3.55;;
18752;SDS011;9505;50.882;5.350;2023-12-29T01:29:24;18.23;;;2.70;;
18752;SDS011;9505;50.882;5.350;2023-12-29T01:31:49;19.05;;;2.67;;
18752;SDS011;9505;50.882;5.350;2023-12-29T01:34:15;23.23;;;3.03;;
18752;SDS011;9505;50.882;5.350;2023-12-29T01:36:41;19.98;;;2.85;;
18752;SDS011;9505;50.882;5.350;2023-12-29T01:39:06;16.52;;;2.45;;
18752;SDS011;9505;50.882;5.350;2023-12-29T01:41:32;12.93;;;2.38;;
18752;SDS011;9505;50.882;5.350;2023-12-29T01:46:26;23.17;;;3.08;;
18752;SDS011;9505;50.882;5.350;2023-12-29T01:48:54;18.90;;;2.10;;
18752;SDS011;9505;50.882;5.350;2023-12-29T01:51:23;20.95;;;3.30;;
18752;SDS011;9505;50.882;5.350;2023-12-29T01:53:54;27.23;;;2.90;;
18752;SDS011;9505;50.882;5.350;2023-12-29T01:56:21;19.02;;;2.28;;
18752;SDS011;9505;50.882;5.350;2023-12-29T01:58:48;22.90;;;2.42;;
18752;SDS011;9505;50.882;5.350;2023-12-29T02:01:16;30.42;;;3.50;;
18752;SDS011;9505;50.882;5.350;2023-12-29T02:03:46;16.65;;;2.55;;
18752;SDS011;9505;50.882;5.350;2023-12-29T02:06:13;23.35;;;2.45;;
18752;SDS011;9505;50.882;5.350;2023-12-29T02:08:40;18.48;;;2.42;;
18752;SDS011;9505;50.882;5.350;2023-12-29T02:11:06;18.10;;;2.63;;
18752;SDS011;9505;50.882;5.350;2023-12-29T02:13:32;19.70;;;3.10;;
18752;SDS011;9505;50.882;5.350;2023-12-29T02:16:00;21.10;;;3.08;;
18752;SDS011;9505;50.882;5.350;2023-12-29T02:18:34;23.10;;;2.85;;
18752;SDS011;9505;50.882;5.350;2023-12-29T02:21:02;18.00;;;2.50;;
18752;SDS011;9505;50.882;5.350;2023-12-29T02:23:28;19.63;;;2.60;;
18752;SDS011;9505;50.882;5.350;2023-12-29T02:25:55;20.77;;;2.97;;
18752;SDS011;9505;50.882;5.350;2023-12-29T02:28:27;28.20;;;3.88;;
18752;SDS011;9505;50.882;5.350;2023-12-29T02:33:55;26.33;;;2.97;;
18752;SDS011;9505;50.882;5.350;2023-12-29T02:36:22;22.95;;;2.90;;
18752;SDS011;9505;50.882;5.350;2023-12-29T02:38:49;15.93;;;2.25;;
18752;SDS011;9505;50.882;5.350;2023-12-29T02:41:15;17.80;;;2.10;;
18752;SDS011;9505;50.882;5.350;2023-12-29T02:43:40;11.60;;;2.35;;
18752;SDS011;9505;50.882;5.350;2023-12-29T02:46:06;17.55;;;2.38;;
18752;SDS011;9505;50.882;5.350;2023-12-29T02:48:32;32.25;;;3.67;;
18752;SDS011;9505;50.882;5.350;2023-12-29T02:50:57;17.63;;;2.38;;
18752;SDS011;9505;50.882;5.350;2023-12-29T02:53:23;27.75;;;2.60;;
18752;SDS011;9505;50.882;5.350;2023-12-29T02:55:48;15.30;;;2.25;;
18752;SDS011;9505;50.882;5.350;2023-12-29T02:58:14;23.77;;;2.10;;
18752;SDS011;9505;50.882;5.350;2023-12-29T03:00:40;17.17;;;2.47;;
18752;SDS011;9505;50.882;5.350;2023-12-29T03:03:06;23.42;;;2.17;;
18752;SDS011;9505;50.882;5.350;2023-12-29T03:05:32;17.33;;;2.33;;
18752;SDS011;9505;50.882;5.350;2023-12-29T03:07:57;21.35;;;2.70;;
18752;SDS011;9505;50.882;5.350;2023-12-29T03:10:23;14.35;;;2.05;;
18752;SDS011;9505;50.882;5.350;2023-12-29T03:12:49;17.10;;;2.25;;
18752;SDS011;9505;50.882;5.350;2023-12-29T03:15:14;20.10;;;2.42;;
18752;SDS011;9505;50.882;5.350;2023-12-29T03:17:40;17.58;;;2.33;;
18752;SDS011;9505;50.882;5.350;2023-12-29T03:20:06;13.60;;;1.98;;
18752;SDS011;9505;50.882;5.350;2023-12-29T03:22:32;30.73;;;3.08;;
18752;SDS011;9505;50.882;5.350;2023-12-29T03:24:58;14.35;;;2.08;;
18752;SDS011;9505;50.882;5.350;2023-12-29T03:27:24;13.95;;;1.98;;
18752;SDS011;9505;50.882;5.350;2023-12-29T03:29:49;23.75;;;2.65;;
18752;SDS011;9505;50.882;5.350;2023-12-29T03:32:15;19.60;;;2.50;;
18752;SDS011;9505;50.882;5.350;2023-12-29T03:34:42;22.65;;;2.45;;
18752;SDS011;9505;50.882;5.350;2023-12-29T03:37:08;17.92;;;2.45;;
18752;SDS011;9505;50.882;5.350;2023-12-29T03:39:34;22.17;;;2.53;;
18752;SDS011;9505;50.882;5.350;2023-12-29T03:42:00;20.17;;;2.30;;
18752;SDS011;9505;50.882;5.350;2023-12-29T03:44:26;22.92;;;2.67;;
18752;SDS011;9505;50.882;5.350;2023-12-29T03:46:52;26.13;;;3.40;;
18752;SDS011;9505;50.882;5.350;2023-12-29T03:49:17;18.80;;;2.22;;
18752;SDS011;9505;50.882;5.350;2023-12-29T03:51:44;23.20;;;2.53;;
18752;SDS011;9505;50.882;5.350;2023-12-29T03:54:11;10.00;;;1.38;;
18752;SDS011;9505;50.882;5.350;2023-12-29T03:56:36;13.05;;;2.00;;
18752;SDS011;9505;50.882;5.350;2023-12-29T03:59:02;20.67;;;2.30;;
18752;SDS011;9505;50.882;5.350;2023-12-29T04:01:28;19.45;;;2.38;;
18752;SDS011;9505;50.882;5.350;2023-12-29T04:03:53;17.85;;;2.55;;
18752;SDS011;9505;50.882;5.350;2023-12-29T04:06:19;21.42;;;2.33;;
18752;SDS011;9505;50.882;5.350;2023-12-29T04:08:45;27.75;;;2.63;;
18752;SDS011;9505;50.882;5.350;2023-12-29T04:11:11;20.55;;;2.35;;
18752;SDS011;9505;50.882;5.350;2023-12-29T04:13:36;12.45;;;2.40;;
18752;SDS011;9505;50.882;5.350;2023-12-29T04:16:02;22.65;;;2.42;;
18752;SDS011;9505;50.882;5.350;2023-12-29T04:18:28;17.35;;;2.08;;
18752;SDS011;9505;50.882;5.350;2023-12-29T04:20:54;12.20;;;1.63;;
18752;SDS011;9505;50.882;5.350;2023-12-29T04:23:20;27.13;;;3.42;;
18752;SDS011;9505;50.882;5.350;2023-12-29T04:25:45;16.58;;;2.28;;
18752;SDS011;9505;50.882;5.350;2023-12-29T04:28:11;27.77;;;6.13;;
18752;SDS011;9505;50.882;5.350;2023-12-29T04:30:37;19.05;;;2.30;;
18752;SDS011;9505;50.882;5.350;2023-12-29T04:33:02;24.27;;;2.72;;
18752;SDS011;9505;50.882;5.350;2023-12-29T04:35:28;23.83;;;2.50;;
18752;SDS011;9505;50.882;5.350;2023-12-29T04:37:54;13.60;;;1.67;;
18752;SDS011;9505;50.882;5.350;2023-12-29T04:40:19;22.35;;;2.33;;
18752;SDS011;9505;50.882;5.350;2023-12-29T04:42:45;23.27;;;3.05;;
18752;SDS011;9505;50.882;5.350;2023-12-29T04:45:11;14.75;;;2.67;;
18752;SDS011;9505;50.882;5.350;2023-12-29T04:47:37;15.07;;;1.80;;
18752;SDS011;9505;50.882;5.350;2023-12-29T04:50:02;21.60;;;2.45;;
18752;SDS011;9505;50.882;5.350;2023-12-29T04:52:28;36.80;;;4.03;;
18752;SDS011;9505;50.882;5.350;2023-12-29T04:54:54;21.25;;;2.67;;
18752;SDS011;9505;50.882;5.350;2023-12-29T04:57:20;19.65;;;2.95;;
18752;SDS011;9505;50.882;5.350;2023-12-29T04:59:45;13.02;;;1.90;;
18752;SDS011;9505;50.882;5.350;2023-12-29T05:02:11;19.85;;;3.20;;
18752;SDS011;9505;50.882;5.350;2023-12-29T05:04:36;13.75;;;2.20;;
18752;SDS011;9505;50.882;5.350;2023-12-29T05:07:04;27.05;;;2.75;;
18752;SDS011;9505;50.882;5.350;2023-12-29T05:09:30;19.85;;;2.30;;
18752;SDS011;9505;50.882;5.350;2023-12-29T05:11:56;25.15;;;2.45;;
18752;SDS011;9505;50.882;5.350;2023-12-29T05:14:22;22.17;;;2.35;;
18752;SDS011;9505;50.882;5.350;2023-12-29T05:16:48;23.63;;;2.60;;
18752;SDS011;9505;50.882;5.350;2023-12-29T05:19:14;17.65;;;1.95;;
18752;SDS011;9505;50.882;5.350;2023-12-29T05:21:40;24.30;;;2.83;;
18752;SDS011;9505;50.882;5.350;2023-12-29T05:24:07;24.33;;;2.72;;
18752;SDS011;9505;50.882;5.350;2023-12-29T05:26:33;15.45;;;1.58;;
18752;SDS011;9505;50.882;5.350;2023-12-29T05:29:00;24.95;;;2.35;;
18752;SDS011;9505;50.882;5.350;2023-12-29T05:31:25;30.33;;;3.83;;
18752;SDS011;9505;50.882;5.350;2023-12-29T05:33:51;24.92;;;2.70;;
18752;SDS011;9505;50.882;5.350;2023-12-29T05:36:16;16.98;;;2.30;;
18752;SDS011;9505;50.882;5.350;2023-12-29T05:38:45;19.85;;;2.13;;
18752;SDS011;9505;50.882;5.350;2023-12-29T05:41:12;18.17;;;1.80;;
18752;SDS011;9505;50.882;5.350;2023-12-29T05:43:38;11.57;;;1.67;;
18752;SDS011;9505;50.882;5.350;2023-12-29T05:46:08;13.20;;;1.80;;
18752;SDS011;9505;50.882;5.350;2023-12-29T05:48:35;12.30;;;2.13;;
18752;SDS011;9505;50.882;5.350;2023-12-29T05:51:05;10.88;;;1.38;;
18752;SDS011;9505;50.882;5.350;2023-12-29T05:53:41;15.00;;;2.03;;
18752;SDS011;9505;50.882;5.350;2023-12-29T05:56:07;20.15;;;2.55;;
18752;SDS011;9505;50.882;5.350;2023-12-29T05:58:34;16.48;;;2.30;;
18752;SDS011;9505;50.882;5.350;2023-12-29T06:01:00;38.47;;;4.30;;
18752;SDS011;9505;50.882;5.350;2023-12-29T06:03:26;33.17;;;3.10;;
18752;SDS011;9505;50.882;5.350;2023-12-29T06:05:52;25.00;;;2.63;;
18752;SDS011;9505;50.882;5.350;2023-12-29T06:08:18;22.73;;;2.22;;
18752;SDS011;9505;50.882;5.350;2023-12-29T06:10:43;37.53;;;4.00;;
18752;SDS011;9505;50.882;5.350;2023-12-29T06:13:09;21.95;;;2.50;;
18752;SDS011;9505;50.882;5.350;2023-12-29T06:15:35;19.25;;;1.88;;
18752;SDS011;9505;50.882;5.350;2023-12-29T06:18:01;22.85;;;2.78;;
18752;SDS011;9505;50.882;5.350;2023-12-29T06:20:27;20.00;;;1.85;;
18752;SDS011;9505;50.882;5.350;2023-12-29T06:22:53;24.60;;;2.58;;
18752;SDS011;9505;50.882;5.350;2023-12-29T06:25:18;30.40;;;3.25;;
18752;SDS011;9505;50.882;5.350;2023-12-29T06:27:44;18.73;;;2.00;;
18752;SDS011;9505;50.882;5.350;2023-12-29T06:30:10;24.73;;;2.75;;
18752;SDS011;9505;50.882;5.350;2023-12-29T06:32:36;20.98;;;2.65;;
18752;SDS011;9505;50.882;5.350;2023-12-29T06:35:01;26.95;;;3.28;;
18752;SDS011;9505;50.882;5.350;2023-12-29T06:37:28;24.60;;;3.03;;
18752;SDS011;9505;50.882;5.350;2023-12-29T06:39:53;21.58;;;2.80;;
18752;SDS011;9505;50.882;5.350;2023-12-29T06:42:19;14.73;;;2.00;;
18752;SDS011;9505;50.882;5.350;2023-12-29T06:44:45;22.27;;;2.40;;
18752;SDS011;9505;50.882;5.350;2023-12-29T06:47:11;22.00;;;2.10;;
18752;SDS011;9505;50.882;5.350;2023-12-29T06:49:37;42.58;;;4.00;;
18752;SDS011;9505;50.882;5.350;2023-12-29T06:52:04;50.65;;;4.32;;
18752;SDS011;9505;50.882;5.350;2023-12-29T06:54:30;48.35;;;5.47;;
18752;SDS011;9505;50.882;5.350;2023-12-29T06:56:55;45.35;;;4.38;;
18752;SDS011;9505;50.882;5.350;2023-12-29T06:59:21;41.63;;;4.57;;
18752;SDS011;9505;50.882;5.350;2023-12-29T07:01:48;45.67;;;5.68;;
18752;SDS011;9505;50.882;5.350;2023-12-29T07:04:13;45.45;;;4.30;;
18752;SDS011;9505;50.882;5.350;2023-12-29T07:06:40;46.17;;;5.28;;
18752;SDS011;9505;50.882;5.350;2023-12-29T07:09:06;45.83;;;4.40;;
18752;SDS011;9505;50.882;5.350;2023-12-29T07:11:33;45.38;;;4.43;;
18752;SDS011;9505;50.882;5.350;2023-12-29T07:13:59;41.30;;;4.38;;
18752;SDS011;9505;50.882;5.350;2023-12-29T07:16:25;53.40;;;4.95;;
18752;SDS011;9505;50.882;5.350;2023-12-29T07:18:51;43.33;;;4.43;;
18752;SDS011;9505;50.882;5.350;2023-12-29T07:21:17;49.30;;;4.78;;
18752;SDS011;9505;50.882;5.350;2023-12-29T07:23:43;38.35;;;3.75;;
18752;SDS011;9505;50.882;5.350;2023-12-29T07:26:15;43.25;;;4.35;;
18752;SDS011;9505;50.882;5.350;2023-12-29T07:28:42;32.92;;;4.30;;
18752;SDS011;9505;50.882;5.350;2023-12-29T07:31:08;42.55;;;4.63;;
18752;SDS011;9505;50.882;5.350;2023-12-29T07:33:34;54.15;;;5.40;;
18752;SDS011;9505;50.882;5.350;2023-12-29T07:35:59;51.95;;;4.97;;
18752;SDS011;9505;50.882;5.350;2023-12-29T07:38:25;48.88;;;4.95;;
18752;SDS011;9505;50.882;5.350;2023-12-29T07:40:51;42.28;;;4.22;;
18752;SDS011;9505;50.882;5.350;2023-12-29T07:43:17;42.35;;;4.75;;
18752;SDS011;9505;50.882;5.350;2023-12-29T07:45:42;50.60;;;5.13;;
18752;SDS011;9505;50.882;5.350;2023-12-29T07:48:08;42.97;;;4.80;;
18752;SDS011;9505;50.882;5.350;2023-12-29T07:50:34;46.05;;;5.13;;
18752;SDS011;9505;50.882;5.350;2023-12-29T07:53:00;42.70;;;4.53;;
18752;SDS011;9505;50.882;5.350;2023-12-29T07:55:28;38.38;;;4.50;;
18752;SDS011;9505;50.882;5.350;2023-12-29T07:57:54;54.83;;;10.32;;
18752;SDS011;9505;50.882;5.350;2023-12-29T08:00:20;53.17;;;5.50;;
18752;SDS011;9505;50.882;5.350;2023-12-29T08:02:45;47.15;;;5.05;;
18752;SDS011;9505;50.882;5.350;2023-12-29T08:05:11;46.67;;;5.10;;
18752;SDS011;9505;50.882;5.350;2023-12-29T08:07:36;49.55;;;4.82;;
18752;SDS011;9505;50.882;5.350;2023-12-29T08:10:05;32.75;;;3.92;;
18752;SDS011;9505;50.882;5.350;2023-12-29T08:12:32;32.72;;;3.45;;
18752;SDS011;9505;50.882;5.350;2023-12-29T08:14:59;52.50;;;5.07;;
18752;SDS011;9505;50.882;5.350;2023-12-29T08:17:25;42.45;;;6.43;;
18752;SDS011;9505;50.882;5.350;2023-12-29T08:19:51;36.08;;;4.80;;
18752;SDS011;9505;50.882;5.350;2023-12-29T08:22:16;38.42;;;3.88;;
18752;SDS011;9505;50.882;5.350;2023-12-29T08:24:42;33.83;;;3.67;;
18752;SDS011;9505;50.882;5.350;2023-12-29T08:27:14;35.75;;;3.90;;
18752;SDS011;9505;50.882;5.350;2023-12-29T08:29:39;45.03;;;4.38;;
18752;SDS011;9505;50.882;5.350;2023-12-29T08:32:05;41.80;;;4.55;;
18752;SDS011;9505;50.882;5.350;2023-12-29T08:34:32;48.10;;;5.72;;
18752;SDS011;9505;50.882;5.350;2023-12-29T08:36:59;44.25;;;4.68;;
18752;SDS011;9505;50.882;5.350;2023-12-29T08:39:25;42.15;;;4.78;;
18752;SDS011;9505;50.882;5.350;2023-12-29T08:41:50;44.70;;;4.75;;
18752;SDS011;9505;50.882;5.350;2023-12-29T08:44:16;39.75;;;4.53;;
18752;SDS011;9505;50.882;5.350;2023-12-29T08:46:42;31.95;;;3.85;;
18752;SDS011;9505;50.882;5.350;2023-12-29T08:49:08;34.72;;;4.47;;
18752;SDS011;9505;50.882;5.350;2023-12-29T08:51:34;42.75;;;4.03;;
18752;SDS011;9505;50.882;5.350;2023-12-29T08:53:59;51.13;;;4.70;;
18752;SDS011;9505;50.882;5.350;2023-12-29T08:56:25;47.20;;;4.55;;
18752;SDS011;9505;50.882;5.350;2023-12-29T08:58:50;48.10;;;4.63;;
18752;SDS011;9505;50.882;5.350;2023-12-29T09:01:17;40.30;;;4.38;;
18752;SDS011;9505;50.882;5.350;2023-12-29T09:03:43;39.05;;;4.45;;
18752;SDS011;9505;50.882;5.350;2023-12-29T09:06:08;37.05;;;5.20;;
18752;SDS011;9505;50.882;5.350;2023-12-29T09:08:34;45.30;;;5.30;;
18752;SDS011;9505;50.882;5.350;2023-12-29T09:11:00;32.55;;;3.88;;
18752;SDS011;9505;50.882;5.350;2023-12-29T09:13:26;41.17;;;4.18;;
18752;SDS011;9505;50.882;5.350;2023-12-29T09:15:55;33.60;;;3.33;;
18752;SDS011;9505;50.882;5.350;2023-12-29T09:18:22;35.45;;;3.50;;
18752;SDS011;9505;50.882;5.350;2023-12-29T09:20:48;38.28;;;3.90;;
18752;SDS011;9505;50.882;5.350;2023-12-29T09:23:13;52.45;;;5.25;;
18752;SDS011;9505;50.882;5.350;2023-12-29T09:25:39;40.08;;;4.55;;
18752;SDS011;9505;50.882;5.350;2023-12-29T09:28:06;35.15;;;3.28;;
18752;SDS011;9505;50.882;5.350;2023-12-29T09:30:31;36.30;;;3.63;;
18752;SDS011;9505;50.882;5.350;2023-12-29T09:32:57;42.80;;;4.00;;
18752;SDS011;9505;50.882;5.350;2023-12-29T09:35:22;36.15;;;3.65;;
18752;SDS011;9505;50.882;5.350;2023-12-29T09:37:49;51.20;;;4.90;;
18752;SDS011;9505;50.882;5.350;2023-12-29T09:40:14;34.33;;;4.15;;
18752;SDS011;9505;50.882;5.350;2023-12-29T09:42:41;39.30;;;4.03;;
18752;SDS011;9505;50.882;5.350;2023-12-29T09:45:10;35.50;;;4.05;;
18752;SDS011;9505;50.882;5.350;2023-12-29T09:47:40;48.05;;;4.50;;
18752;SDS011;9505;50.882;5.350;2023-12-29T09:50:11;32.75;;;4.65;;
18752;SDS011;9505;50.882;5.350;2023-12-29T09:52:40;50.33;;;4.78;;
18752;SDS011;9505;50.882;5.350;2023-12-29T09:55:08;44.53;;;4.63;;
18752;SDS011;9505;50.882;5.350;2023-12-29T09:57:37;41.58;;;4.55;;
18752;SDS011;9505;50.882;5.350;2023-12-29T10:00:04;36.90;;;3.97;;
18752;SDS011;9505;50.882;5.350;2023-12-29T10:02:30;41.92;;;3.92;;
18752;SDS011;9505;50.882;5.350;2023-12-29T10:04:57;50.72;;;5.90;;
18752;SDS011;9505;50.882;5.350;2023-12-29T10:07:26;44.00;;;4.32;;
18752;SDS011;9505;50.882;5.350;2023-12-29T10:09:56;28.85;;;3.75;;
18752;SDS011;9505;50.882;5.350;2023-12-29T10:12:26;44.17;;;4.53;;
18752;SDS011;9505;50.882;5.350;2023-12-29T10:15:42;32.55;;;3.45;;
18752;SDS011;9505;50.882;5.350;2023-12-29T10:17:54;32.17;;;3.28;;
18752;SDS011;9505;50.882;5.350;2023-12-29T10:23:25;40.38;;;4.20;;
18752;SDS011;9505;50.882;5.350;2023-12-29T10:25:59;51.30;;;4.95;;
18752;SDS011;9505;50.882;5.350;2023-12-29T10:28:25;37.30;;;4.10;;
18752;SDS011;9505;50.882;5.350;2023-12-29T10:30:51;42.08;;;4.53;;
18752;SDS011;9505;50.882;5.350;2023-12-29T10:33:20;37.42;;;4.28;;
18752;SDS011;9505;50.882;5.350;2023-12-29T10:35:56;36.67;;;4.25;;
18752;SDS011;9505;50.882;5.350;2023-12-29T10:38:28;38.22;;;4.38;;
18752;SDS011;9505;50.882;5.350;2023-12-29T10:40:54;44.35;;;5.18;;
18752;SDS011;9505;50.882;5.350;2023-12-29T10:43:35;42.08;;;4.50;;
18752;SDS011;9505;50.882;5.350;2023-12-29T10:46:07;48.50;;;4.82;;
18752;SDS011;9505;50.882;5.350;2023-12-29T10:48:33;37.08;;;4.18;;
18752;SDS011;9505;50.882;5.350;2023-12-29T10:50:59;41.00;;;3.92;;
18752;SDS011;9505;50.882;5.350;2023-12-29T10:53:29;39.95;;;4.18;;
18752;SDS011;9505;50.882;5.350;2023-12-29T10:55:55;33.63;;;3.50;;
18752;SDS011;9505;50.882;5.350;2023-12-29T10:58:21;37.97;;;4.25;;
18752;SDS011;9505;50.882;5.350;2023-12-29T11:00:46;33.35;;;3.08;;
18752;SDS011;9505;50.882;5.350;2023-12-29T11:03:14;47.88;;;4.80;;
18752;SDS011;9505;50.882;5.350;2023-12-29T11:05:41;43.42;;;4.30;;
18752;SDS011;9505;50.882;5.350;2023-12-29T11:08:17;41.97;;;4.13;;
18752;SDS011;9505;50.882;5.350;2023-12-29T11:10:49;47.05;;;5.47;;
18752;SDS011;9505;50.882;5.350;2023-12-29T11:13:15;33.97;;;4.13;;
18752;SDS011;9505;50.882;5.350;2023-12-29T11:15:45;38.42;;;3.95;;
18752;SDS011;9505;50.882;5.350;2023-12-29T11:18:14;29.20;;;2.97;;
18752;SDS011;9505;50.882;5.350;2023-12-29T11:20:42;33.05;;;3.53;;
18752;SDS011;9505;50.882;5.350;2023-12-29T11:23:09;47.15;;;4.57;;
18752;SDS011;9505;50.882;5.350;2023-12-29T11:25:38;41.53;;;4.05;;
18752;SDS011;9505;50.882;5.350;2023-12-29T11:28:04;42.55;;;4.65;;
18752;SDS011;9505;50.882;5.350;2023-12-29T11:30:34;39.33;;;3.85;;
18752;SDS011;9505;50.882;5.350;2023-12-29T11:33:08;41.08;;;4.00;;
18752;SDS011;9505;50.882;5.350;2023-12-29T11:35:51;42.97;;;4.75;;
18752;SDS011;9505;50.882;5.350;2023-12-29T11:43:58;35.55;;;4.18;;
18752;SDS011;9505;50.882;5.350;2023-12-29T11:46:37;43.85;;;4.30;;
18752;SDS011;9505;50.882;5.350;2023-12-29T11:49:03;39.33;;;3.83;;
18752;SDS011;9505;50.882;5.350;2023-12-29T11:51:30;40.20;;;4.18;;
18752;SDS011;9505;50.882;5.350;2023-12-29T11:54:10;34.17;;;3.47;;
18752;SDS011;9505;50.882;5.350;2023-12-29T11:56:46;33.30;;;3.42;;
18752;SDS011;9505;50.882;5.350;2023-12-29T11:59:12;37.95;;;3.75;;
18752;SDS011;9505;50.882;5.350;2023-12-29T12:01:46;42.75;;;4.40;;
18752;SDS011;9505;50.882;5.350;2023-12-29T12:07:05;37.45;;;3.80;;
18752;SDS011;9505;50.882;5.350;2023-12-29T12:09:33;53.05;;;5.07;;
18752;SDS011;9505;50.882;5.350;2023-12-29T12:12:00;33.70;;;3.70;;
18752;SDS011;9505;50.882;5.350;2023-12-29T12:14:50;46.45;;;4.53;;
18752;SDS011;9505;50.882;5.350;2023-12-29T12:17:29;36.10;;;4.28;;
18752;SDS011;9505;50.882;5.350;2023-12-29T12:20:06;40.25;;;4.30;;
18752;SDS011;9505;50.882;5.350;2023-12-29T12:22:35;43.50;;;4.25;;
18752;SDS011;9505;50.882;5.350;2023-12-29T12:25:02;33.78;;;3.45;;
18752;SDS011;9505;50.882;5.350;2023-12-29T12:27:28;44.53;;;4.82;;
18752;SDS011;9505;50.882;5.350;2023-12-29T12:29:57;38.97;;;3.83;;
18752;SDS011;9505;50.882;5.350;2023-12-29T12:32:26;32.60;;;3.25;;
18752;SDS011;9505;50.882;5.350;2023-12-29T12:34:53;34.03;;;3.60;;
18752;SDS011;9505;50.882;5.350;2023-12-29T12:37:23;45.70;;;4.95;;
18752;SDS011;9505;50.882;5.350;2023-12-29T12:39:51;44.10;;;4.05;;
18752;SDS011;9505;50.882;5.350;2023-12-29T12:42:18;33.92;;;3.88;;
18752;SDS011;9505;50.882;5.350;2023-12-29T12:45:03;36.03;;;3.78;;
18752;SDS011;9505;50.882;5.350;2023-12-29T12:47:36;39.20;;;3.85;;
18752;SDS011;9505;50.882;5.350;2023-12-29T12:50:09;47.13;;;4.50;;
18752;SDS011;9505;50.882;5.350;2023-12-29T12:52:38;40.72;;;3.70;;
18752;SDS011;9505;50.882;5.350;2023-12-29T12:55:05;42.25;;;4.35;;
18752;SDS011;9505;50.882;5.350;2023-12-29T12:57:32;40.90;;;3.83;;
18752;SDS011;9505;50.882;5.350;2023-12-29T12:59:59;34.80;;;3.83;;
18752;SDS011;9505;50.882;5.350;2023-12-29T13:02:26;45.75;;;4.85;;
18752;SDS011;9505;50.882;5.350;2023-12-29T13:04:53;45.35;;;5.32;;
18752;SDS011;9505;50.882;5.350;2023-12-29T13:07:20;32.05;;;3.72;;
18752;SDS011;9505;50.882;5.350;2023-12-29T13:09:46;40.53;;;4.20;;
18752;SDS011;9505;50.882;5.350;2023-12-29T13:12:15;37.65;;;3.83;;
18752;SDS011;9505;50.882;5.350;2023-12-29T13:14:42;57.22;;;5.85;;
18752;SDS011;9505;50.882;5.350;2023-12-29T13:17:14;45.80;;;5.25;;
18752;SDS011;9505;50.882;5.350;2023-12-29T13:19:41;39.97;;;4.10;;
18752;SDS011;9505;50.882;5.350;2023-12-29T13:22:09;41.85;;;4.32;;
18752;SDS011;9505;50.882;5.350;2023-12-29T13:24:46;24.75;;;3.03;;
18752;SDS011;9505;50.882;5.350;2023-12-29T13:27:12;32.60;;;3.53;;
18752;SDS011;9505;50.882;5.350;2023-12-29T13:29:38;24.10;;;3.00;;
18752;SDS011;9505;50.882;5.350;2023-12-29T13:32:10;25.55;;;3.05;;
18752;SDS011;9505;50.882;5.350;2023-12-29T13:37:46;26.83;;;3.15;;
18752;SDS011;9505;50.882;5.350;2023-12-29T13:40:14;27.25;;;3.13;;
18752;SDS011;9505;50.882;5.350;2023-12-29T13:43:02;25.73;;;3.10;;
18752;SDS011;9505;50.882;5.350;2023-12-29T13:45:29;19.92;;;2.50;;
18752;SDS011;9505;50.882;5.350;2023-12-29T13:47:56;22.33;;;2.90;;
18752;SDS011;9505;50.882;5.350;2023-12-29T13:50:22;10.85;;;2.10;;
18752;SDS011;9505;50.882;5.350;2023-12-29T13:52:49;17.00;;;2.70;;
18752;SDS011;9505;50.882;5.350;2023-12-29T13:55:24;19.02;;;2.80;;
18752;SDS011;9505;50.882;5.350;2023-12-29T13:57:52;27.25;;;3.53;;
18752;SDS011;9505;50.882;5.350;2023-12-29T14:00:20;21.70;;;3.05;;
18752;SDS011;9505;50.882;5.350;2023-12-29T14:03:34;31.67;;;3.33;;
18752;SDS011;9505;50.882;5.350;2023-12-29T14:05:43;19.80;;;2.78;;
18752;SDS011;9505;50.882;5.350;2023-12-29T14:08:17;17.52;;;2.40;;
18752;SDS011;9505;50.882;5.350;2023-12-29T14:10:46;25.20;;;3.20;;
18752;SDS011;9505;50.882;5.350;2023-12-29T14:13:12;20.38;;;2.65;;
18752;SDS011;9505;50.882;5.350;2023-12-29T14:15:40;35.05;;;3.42;;
18752;SDS011;9505;50.882;5.350;2023-12-29T14:20:41;32.35;;;3.38;;
18752;SDS011;9505;50.882;5.350;2023-12-29T14:23:06;22.15;;;2.65;;
18752;SDS011;9505;50.882;5.350;2023-12-29T14:25:33;20.00;;;2.20;;
18752;SDS011;9505;50.882;5.350;2023-12-29T14:28:01;25.20;;;2.58;;
18752;SDS011;9505;50.882;5.350;2023-12-29T14:30:27;18.08;;;2.20;;
18752;SDS011;9505;50.882;5.350;2023-12-29T14:32:56;14.95;;;1.73;;
18752;SDS011;9505;50.882;5.350;2023-12-29T14:35:23;23.83;;;2.50;;
18752;SDS011;9505;50.882;5.350;2023-12-29T14:37:49;20.05;;;2.17;;
18752;SDS011;9505;50.882;5.350;2023-12-29T14:40:15;11.40;;;1.55;;
18752;SDS011;9505;50.882;5.350;2023-12-29T14:42:40;20.83;;;2.70;;
18752;SDS011;9505;50.882;5.350;2023-12-29T14:45:07;34.88;;;3.90;;
18752;SDS011;9505;50.882;5.350;2023-12-29T14:47:34;19.55;;;2.83;;
18752;SDS011;9505;50.882;5.350;2023-12-29T14:50:00;19.35;;;2.58;;
18752;SDS011;9505;50.882;5.350;2023-12-29T14:52:26;30.90;;;3.63;;
18752;SDS011;9505;50.882;5.350;2023-12-29T14:54:52;29.48;;;3.70;;
18752;SDS011;9505;50.882;5.350;2023-12-29T14:57:18;20.70;;;2.95;;
18752;SDS011;9505;50.882;5.350;2023-12-29T14:59:43;27.02;;;3.22;;
18752;SDS011;9505;50.882;5.350;2023-12-29T15:02:09;27.25;;;3.75;;
18752;SDS011;9505;50.882;5.350;2023-12-29T15:04:35;39.33;;;4.53;;
18752;SDS011;9505;50.882;5.350;2023-12-29T15:07:01;30.45;;;3.60;;
18752;SDS011;9505;50.882;5.350;2023-12-29T15:09:27;32.03;;;3.67;;
18752;SDS011;9505;50.882;5.350;2023-12-29T15:11:53;24.55;;;3.33;;